createdAt,value
2023-03-07T00:01:00.416Z,96940.50
2023-03-07T00:03:27.281Z,96946.56
2023-03-07T00:06:05.205Z,96936.22
2023-03-07T00:08:32.504Z,96937.13
2023-03-07T00:11:03.274Z,96936.13
2023-03-07T00:13:34.134Z,96928.25
2023-03-07T00:16:06.402Z,96933.53
2023-03-07T00:18:33.689Z,96926.50
2023-03-07T00:21:02.897Z,96929.06
2023-03-07T00:23:29.510Z,96923.16
2023-03-07T00:26:01.187Z,96919.75
2023-03-07T00:28:28.801Z,96914.47
2023-03-07T00:31:00.573Z,96910.97
2023-03-07T00:33:27.571Z,96915.19
2023-03-07T00:35:59.302Z,96903.88
2023-03-07T00:38:27.071Z,96900.50
2023-03-07T00:41:01.641Z,96893.56
2023-03-07T00:43:28.831Z,96892.69
2023-03-07T00:45:56.656Z,96881.44
2023-03-07T00:48:24.239Z,96872.06
2023-03-07T00:50:51.600Z,96884.81
2023-03-07T00:53:19.016Z,96865.97
2023-03-07T00:55:54.779Z,96866.03
2023-03-07T00:58:21.478Z,96866.91
2023-03-07T01:00:48.152Z,96860.72
2023-03-07T01:03:14.750Z,96858.03
2023-03-07T01:05:41.890Z,96845.31
2023-03-07T01:08:08.666Z,96844.44
2023-03-07T01:10:35.376Z,96841.91
2023-03-07T01:13:02.211Z,96834.84
2023-03-07T01:15:28.837Z,96836.69
2023-03-07T01:17:55.459Z,96828.94
2023-03-07T01:20:22.217Z,96821.22
2023-03-07T01:22:49.112Z,96822.84
2023-03-07T01:25:15.914Z,96819.34
2023-03-07T01:27:42.542Z,96814.97
2023-03-07T01:30:09.997Z,96813.31
2023-03-07T01:32:36.656Z,96806.31
2023-03-07T01:35:03.596Z,96811.50
2023-03-07T01:37:30.169Z,96800.44
2023-03-07T01:39:56.947Z,96797.03
2023-03-07T01:42:23.570Z,96772.72
2023-03-07T01:45:07.503Z,96789.22
2023-03-07T01:47:35.220Z,96788.34
2023-03-07T01:50:06.603Z,96770.22
2023-03-07T01:52:37.063Z,96760.75
2023-03-07T01:55:11.544Z,96754.84
2023-03-07T01:57:41.793Z,96752.22
2023-03-07T02:00:13.771Z,96738.38
2023-03-07T02:02:45.450Z,96746.09
2023-03-07T02:05:23.730Z,96741.75
2023-03-07T02:07:51.829Z,96737.47
2023-03-07T02:10:21.664Z,96738.53
2023-03-07T02:12:49.210Z,96738.38
2023-03-07T02:15:16.077Z,96734.16
2023-03-07T02:17:44.904Z,96722.84
2023-03-07T02:20:30.262Z,96716.88
2023-03-07T02:22:57.178Z,96717.59
2023-03-07T02:25:44.097Z,96714.16
2023-03-07T02:28:16.824Z,96703.91
2023-03-07T02:31:06.145Z,96707.25
2023-03-07T02:33:32.977Z,96697.75
2023-03-07T02:36:08.370Z,96710.78
2023-03-07T02:38:40.089Z,96698.63
2023-03-07T02:41:11.071Z,96694.28
2023-03-07T02:43:37.948Z,96692.59
2023-03-07T02:46:05.046Z,96685.81
2023-03-07T02:48:32.103Z,96690.03
2023-03-07T02:50:58.762Z,96675.41
2023-03-07T02:53:25.504Z,96683.19
2023-03-07T02:55:52.109Z,96677.97
2023-03-07T02:58:18.704Z,96680.56
2023-03-07T03:00:45.420Z,96671.06
2023-03-07T03:03:12.254Z,96673.69
2023-03-07T03:05:38.979Z,96676.34
2023-03-07T03:08:06.350Z,96662.50
2023-03-07T03:10:33.073Z,96672.03
2023-03-07T03:12:59.653Z,96659.88
2023-03-07T03:15:26.506Z,96677.06
2023-03-07T03:17:54.602Z,96648.66
2023-03-07T03:20:21.208Z,96658.13
2023-03-07T03:22:47.806Z,96658.97
2023-03-07T03:25:15.311Z,96645.09
2023-03-07T03:27:42.143Z,96648.56
2023-03-07T03:30:11.201Z,96643.31
2023-03-07T03:32:39.036Z,96625.16
2023-03-07T03:35:07.055Z,96636.41
2023-03-07T03:37:34.638Z,96635.56
2023-03-07T03:40:01.261Z,96639.81
2023-03-07T03:42:28.130Z,96632.75
2023-03-07T03:44:54.920Z,96628.56
2023-03-07T03:47:21.548Z,96625.91
2023-03-07T03:49:48.239Z,96634.56
2023-03-07T03:52:14.820Z,96629.56
2023-03-07T03:54:41.379Z,96637.34
2023-03-07T03:57:08.047Z,96626.00
2023-03-07T03:59:34.626Z,96613.94
2023-03-07T04:02:01.255Z,96618.28
2023-03-07T04:04:27.899Z,96615.66
2023-03-07T04:06:54.466Z,96610.50
2023-03-07T04:09:20.997Z,96611.34
2023-03-07T04:11:47.537Z,96617.44
2023-03-07T04:14:14.309Z,96595.88
2023-03-07T04:16:41.018Z,96607.88
2023-03-07T04:19:10.227Z,96612.38
2023-03-07T04:21:36.912Z,96611.44
2023-03-07T04:24:03.830Z,96609.75
2023-03-07T04:26:30.435Z,96604.56
2023-03-07T04:28:57.060Z,96604.69
2023-03-07T04:31:26.477Z,96589.97
2023-03-07T04:33:54.942Z,96601.97
2023-03-07T04:36:22.638Z,96596.78
2023-03-07T04:38:50.080Z,96588.03
2023-03-07T04:41:19.589Z,96592.47
2023-03-07T04:43:46.532Z,96592.41
2023-03-07T04:46:15.707Z,96587.00
2023-03-07T04:48:42.499Z,96583.72
2023-03-07T04:51:09.542Z,96581.00
2023-03-07T04:53:36.227Z,96578.47
2023-03-07T04:56:04.941Z,96570.78
2023-03-07T04:58:32.320Z,96581.13
2023-03-07T05:01:01.201Z,96575.94
2023-03-07T05:03:28.828Z,96570.75
2023-03-07T05:05:55.908Z,96571.63
2023-03-07T05:08:22.973Z,96564.75
2023-03-07T05:10:49.680Z,96564.84
2023-03-07T05:13:16.340Z,96546.63
2023-03-07T05:15:42.993Z,96561.38
2023-03-07T05:18:09.627Z,96564.06
2023-03-07T05:20:36.288Z,96577.13
2023-03-07T05:23:02.888Z,96567.66
2023-03-07T05:25:29.726Z,96578.00
2023-03-07T05:27:56.253Z,96576.31
2023-03-07T05:30:23.002Z,96576.38
2023-03-07T05:32:51.501Z,96578.94
2023-03-07T05:35:18.340Z,96580.72
2023-03-07T05:37:45.054Z,96581.47
2023-03-07T05:40:13.101Z,96575.38
2023-03-07T05:42:39.962Z,96582.19
2023-03-07T05:45:07.424Z,96582.25
2023-03-07T05:47:34.036Z,96568.31
2023-03-07T05:50:00.668Z,96577.97
2023-03-07T05:52:29.152Z,96575.31
2023-03-07T05:54:55.845Z,96577.78
2023-03-07T05:57:23.451Z,96582.91
2023-03-07T05:59:50.197Z,96585.59
2023-03-07T06:02:17.239Z,96576.78
2023-03-07T06:04:44.337Z,96575.94
2023-03-07T06:07:10.974Z,96579.50
2023-03-07T06:09:37.776Z,96575.13
2023-03-07T06:12:04.738Z,96570.66
2023-03-07T06:14:34.404Z,96576.66
2023-03-07T06:17:02.594Z,96571.47
2023-03-07T06:19:29.378Z,96574.00
2023-03-07T06:21:55.884Z,96573.25
2023-03-07T06:24:22.353Z,96575.63
2023-03-07T06:26:49.062Z,96576.63
2023-03-07T06:29:15.725Z,96560.84
2023-03-07T06:31:42.468Z,96561.69
2023-03-07T06:34:09.407Z,96566.75
2023-03-07T06:36:36.110Z,96568.47
2023-03-07T06:39:02.889Z,96563.84
2023-03-07T06:41:29.833Z,96569.97
2023-03-07T06:43:56.639Z,96562.09
2023-03-07T06:46:23.275Z,96557.72
2023-03-07T06:48:52.240Z,96568.06
2023-03-07T06:51:19.066Z,96567.19
2023-03-07T06:53:45.786Z,96557.59
2023-03-07T06:56:12.329Z,96571.34
2023-03-07T06:58:38.943Z,96575.56
2023-03-07T07:01:05.812Z,96572.00
2023-03-07T07:03:32.441Z,96564.06
2023-03-07T07:05:59.138Z,96566.56
2023-03-07T07:08:26.024Z,96558.72
2023-03-07T07:10:52.752Z,96565.59
2023-03-07T07:13:19.424Z,96564.56
2023-03-07T07:15:46.275Z,96564.47
2023-03-07T07:18:14.106Z,96571.22
2023-03-07T07:20:40.710Z,96574.72
2023-03-07T07:23:07.493Z,96570.97
2023-03-07T07:25:34.294Z,96566.41
2023-03-07T07:28:01.117Z,96565.59
2023-03-07T07:30:30.727Z,96575.03
2023-03-07T07:32:57.505Z,96571.31
2023-03-07T07:35:24.440Z,96573.91
2023-03-07T07:37:51.017Z,96567.91
2023-03-07T07:40:17.862Z,96568.72
2023-03-07T07:42:44.738Z,96560.94
2023-03-07T07:45:11.685Z,96564.06
2023-03-07T07:47:38.387Z,96559.78
2023-03-07T07:50:06.003Z,96557.97
2023-03-07T07:52:32.775Z,96560.56
2023-03-07T07:54:59.986Z,96563.09
2023-03-07T07:57:26.844Z,96558.53
2023-03-07T07:59:53.772Z,96557.53
2023-03-07T08:02:21.169Z,96557.16
2023-03-07T08:04:47.867Z,96552.69
2023-03-07T08:07:14.769Z,96548.19
2023-03-07T08:09:41.563Z,96550.66
2023-03-07T08:12:11.745Z,96535.00
2023-03-07T08:14:39.325Z,96529.88
2023-03-07T08:17:06.400Z,96536.69
2023-03-07T08:19:33.398Z,96532.34
2023-03-07T08:22:00.675Z,96529.28
2023-03-07T08:24:39.988Z,96537.81
2023-03-07T08:27:07.413Z,96534.16
2023-03-07T08:29:35.399Z,96539.97
2023-03-07T08:32:02.157Z,96539.06
2023-03-07T08:34:28.934Z,96544.28
2023-03-07T08:36:55.642Z,96533.16
2023-03-07T08:39:22.215Z,96535.84
2023-03-07T08:41:48.777Z,96535.84
2023-03-07T08:44:15.335Z,96540.84
2023-03-07T08:46:42.125Z,96538.19
2023-03-07T08:49:08.837Z,96533.91
2023-03-07T08:51:35.656Z,96536.38
2023-03-07T08:54:02.252Z,96539.50
2023-03-07T08:56:28.772Z,96550.75
2023-03-07T08:58:55.434Z,96539.88
2023-03-07T09:01:22.479Z,96537.88
2023-03-07T09:03:49.403Z,96525.69
2023-03-07T09:06:18.581Z,96534.09
2023-03-07T09:08:47.652Z,96549.53
2023-03-07T09:11:15.773Z,96539.06
2023-03-07T09:13:51.446Z,96540.81
2023-03-07T09:16:19.256Z,96541.38
2023-03-07T09:18:45.701Z,96538.06
2023-03-07T09:21:12.923Z,96537.38
2023-03-07T09:23:39.451Z,96528.72
2023-03-07T09:26:06.849Z,96520.69
2023-03-07T09:28:33.427Z,96526.25
2023-03-07T09:31:00.577Z,96521.88
2023-03-07T09:33:27.523Z,96509.59
2023-03-07T09:35:54.242Z,96515.16
2023-03-07T09:38:20.899Z,96505.97
2023-03-07T09:40:48.331Z,96507.34
2023-03-07T09:43:33.956Z,96514.25
2023-03-07T09:46:31.272Z,96503.31
2023-03-07T09:49:18.130Z,96500.78
2023-03-07T09:51:48.860Z,96506.84
2023-03-07T09:54:22.364Z,96495.19
2023-03-07T09:56:59.793Z,96492.19
2023-03-07T09:59:43.663Z,96484.19
2023-03-07T10:02:28.848Z,96488.50
2023-03-07T10:05:20.744Z,96480.81
2023-03-07T10:07:47.531Z,96486.84
2023-03-07T10:10:32.081Z,96488.25
2023-03-07T10:13:19.995Z,96489.41
2023-03-07T10:16:27.219Z,96484.19
2023-03-07T10:19:31.103Z,96482.13
2023-03-07T10:22:13.508Z,96489.31
2023-03-07T10:24:52.973Z,96481.88
2023-03-07T10:27:25.939Z,96475.47
2023-03-07T10:29:55.106Z,96474.78
2023-03-07T10:32:35.407Z,96462.66
2023-03-07T10:35:15.118Z,96455.97
2023-03-07T10:38:08.284Z,96462.59
2023-03-07T10:40:55.303Z,96457.19
2023-03-07T10:43:31.578Z,96451.16
2023-03-07T10:46:23.596Z,96452.97
2023-03-07T10:49:08.766Z,96445.69
2023-03-07T10:52:12.315Z,96437.19
2023-03-07T10:54:39.968Z,96418.13
2023-03-07T10:57:06.629Z,96430.53
2023-03-07T10:59:33.664Z,96426.78
2023-03-07T11:02:02.278Z,96411.41
2023-03-07T11:04:42.556Z,96412.94
2023-03-07T11:07:28.171Z,96407.31
2023-03-07T11:09:56.344Z,96413.53
2023-03-07T11:12:24.538Z,96403.06
2023-03-07T11:15:09.562Z,96404.50
2023-03-07T11:17:45.066Z,96388.94
2023-03-07T11:20:47.612Z,96418.38
2023-03-07T11:23:17.175Z,96393.59
2023-03-07T11:25:44.464Z,96399.56
2023-03-07T11:28:30.965Z,96398.50
2023-03-07T11:31:23.200Z,96398.50
2023-03-07T11:34:11.522Z,96393.19
2023-03-07T11:36:44.221Z,96400.31
2023-03-07T11:39:37.669Z,96389.50
2023-03-07T11:42:15.039Z,96390.50
2023-03-07T11:44:57.452Z,96376.59
2023-03-07T11:47:48.339Z,96390.53
2023-03-07T11:50:35.812Z,96380.72
2023-03-07T11:53:30.322Z,96387.44
2023-03-07T11:56:16.152Z,96378.09
2023-03-07T11:59:04.574Z,96384.00
2023-03-07T12:02:06.853Z,96379.47
2023-03-07T12:05:11.951Z,96386.38
2023-03-07T12:08:07.879Z,96371.38
2023-03-07T12:11:16.743Z,96378.44
2023-03-07T12:14:11.015Z,96383.25
2023-03-07T12:16:53.005Z,96378.94
2023-03-07T12:19:43.307Z,96363.53
2023-03-07T12:22:29.772Z,96377.81
2023-03-07T12:25:02.470Z,96377.50
2023-03-07T12:27:35.490Z,96373.94
2023-03-07T12:30:20.449Z,96372.88
2023-03-07T12:32:49.933Z,96385.47
2023-03-07T12:35:25.391Z,96369.78
2023-03-07T12:38:18.133Z,96372.97
2023-03-07T12:40:54.273Z,96374.78
2023-03-07T12:43:33.354Z,96370.19
2023-03-07T12:46:21.754Z,96364.03
2023-03-07T12:49:02.115Z,96365.22
2023-03-07T12:51:37.139Z,96369.63
2023-03-07T12:54:12.606Z,96366.81
2023-03-07T12:57:02.636Z,96360.88
2023-03-07T12:59:31.469Z,96371.66
2023-03-07T13:01:58.731Z,96356.38
2023-03-07T13:04:25.415Z,96363.78
2023-03-07T13:06:55.480Z,96356.88
2023-03-07T13:09:25.011Z,96365.88
2023-03-07T13:12:16.583Z,96360.09
2023-03-07T13:14:54.450Z,96356.50
2023-03-07T13:17:42.021Z,96364.72
2023-03-07T13:20:36.836Z,96366.56
2023-03-07T13:23:23.042Z,96357.94
2023-03-07T13:25:56.576Z,96358.13
2023-03-07T13:28:40.814Z,96359.16
2023-03-07T13:31:20.722Z,96361.00
2023-03-07T13:33:48.114Z,96355.97
2023-03-07T13:36:31.876Z,96356.38
2023-03-07T13:38:58.506Z,96344.22
2023-03-07T13:41:45.719Z,96348.91
2023-03-07T13:44:30.588Z,96346.06
2023-03-07T13:47:02.730Z,96365.13
2023-03-07T13:49:41.245Z,96359.34
2023-03-07T13:52:30.434Z,96360.94
2023-03-07T13:54:59.692Z,96355.13
2023-03-07T13:57:34.044Z,96365.88
2023-03-07T14:00:02.632Z,96357.22
2023-03-07T14:02:29.736Z,96357.06
2023-03-07T14:04:58.378Z,96368.31
2023-03-07T14:07:32.102Z,96355.25
2023-03-07T14:10:22.720Z,96355.22
2023-03-07T14:13:18.636Z,96349.47
2023-03-07T14:16:12.074Z,96353.31
2023-03-07T14:18:47.837Z,96354.88
2023-03-07T14:21:38.543Z,96352.59
2023-03-07T14:24:11.520Z,96342.94
2023-03-07T14:26:53.281Z,96346.38
2023-03-07T14:29:28.158Z,96346.22
2023-03-07T14:31:57.235Z,96339.00
2023-03-07T14:34:34.708Z,96341.94
2023-03-07T14:37:06.172Z,96342.47
2023-03-07T14:40:00.820Z,96344.88
2023-03-07T14:42:42.653Z,96339.00
2023-03-07T14:45:50.233Z,96343.69
2023-03-07T14:48:43.908Z,96344.47
2023-03-07T14:51:20.836Z,96346.06
2023-03-07T14:53:49.336Z,96332.63
2023-03-07T14:56:27.453Z,96348.03
2023-03-07T14:59:01.791Z,96345.94
2023-03-07T15:01:40.591Z,96344.91
2023-03-07T15:04:24.810Z,96354.44
2023-03-07T15:07:04.741Z,96353.19
2023-03-07T15:09:32.584Z,96352.22
2023-03-07T15:11:59.132Z,96359.66
2023-03-07T15:14:48.438Z,96352.16
2023-03-07T15:17:26.369Z,96358.28
2023-03-07T15:20:07.834Z,96347.78
2023-03-07T15:22:40.692Z,96353.50
2023-03-07T15:25:18.561Z,96353.75
2023-03-07T15:27:45.398Z,96362.06
2023-03-07T15:30:28.861Z,96361.16
2023-03-07T15:33:20.437Z,96360.56
2023-03-07T15:36:07.700Z,96363.13
2023-03-07T15:38:35.370Z,96371.88
2023-03-07T15:41:01.908Z,96371.78
2023-03-07T15:43:34.999Z,96370.88
2023-03-07T15:46:03.417Z,96375.25
2023-03-07T15:48:50.488Z,96371.56
2023-03-07T15:51:22.939Z,96383.16
2023-03-07T15:54:03.574Z,96385.38
2023-03-07T15:56:38.010Z,96389.88
2023-03-07T15:59:16.225Z,96390.22
2023-03-07T16:01:43.046Z,96393.13
2023-03-07T16:04:39.826Z,96401.28
2023-03-07T16:07:16.189Z,96398.44
2023-03-07T16:09:42.801Z,96409.09
2023-03-07T16:12:14.933Z,96414.28
2023-03-07T16:14:42.210Z,96416.53
2023-03-07T16:17:30.567Z,96419.69
2023-03-07T16:19:57.776Z,96429.75
2023-03-07T16:22:24.627Z,96437.94
2023-03-07T16:24:51.305Z,96445.47
2023-03-07T16:27:23.322Z,96440.25
2023-03-07T16:29:50.658Z,96445.78
2023-03-07T16:32:19.276Z,96445.28
2023-03-07T16:34:46.458Z,96455.06
2023-03-07T16:37:13.508Z,96450.03
2023-03-07T16:39:41.206Z,96460.25
2023-03-07T16:42:18.527Z,96461.56
2023-03-07T16:44:45.388Z,96455.53
2023-03-07T16:47:18.074Z,96461.09
2023-03-07T16:49:46.895Z,96474.25
2023-03-07T16:52:14.203Z,96474.25
2023-03-07T16:54:41.184Z,96469.50
2023-03-07T16:57:17.123Z,96465.81
2023-03-07T16:59:47.132Z,96471.66
2023-03-07T17:02:17.246Z,96470.63
2023-03-07T17:04:44.624Z,96476.31
2023-03-07T17:07:19.150Z,96480.75
2023-03-07T17:09:45.948Z,96475.88
2023-03-07T17:12:12.894Z,96488.56
2023-03-07T17:14:39.815Z,96486.97
2023-03-07T17:17:07.061Z,96491.31
2023-03-07T17:19:34.673Z,96489.19
2023-03-07T17:22:02.194Z,96495.19
2023-03-07T17:24:29.564Z,96493.41
2023-03-07T17:27:00.286Z,96494.91
2023-03-07T17:29:50.155Z,96496.63
2023-03-07T17:32:17.414Z,96503.50
2023-03-07T17:34:44.417Z,96493.34
2023-03-07T17:37:11.963Z,96510.88
2023-03-07T17:39:39.434Z,96499.69
2023-03-07T17:42:06.604Z,96505.56
2023-03-07T17:44:33.258Z,96517.09
2023-03-07T17:47:00.133Z,96497.31
2023-03-07T17:49:32.859Z,96519.88
2023-03-07T17:51:59.486Z,96508.72
2023-03-07T17:54:26.044Z,96525.13
2023-03-07T17:56:52.654Z,96525.13
2023-03-07T17:59:19.236Z,96517.44
2023-03-07T18:01:45.944Z,96541.22
2023-03-07T18:04:12.569Z,96531.91
2023-03-07T18:06:41.005Z,96509.25
2023-03-07T18:09:08.529Z,96539.75
2023-03-07T18:11:35.555Z,96538.16
2023-03-07T18:14:02.460Z,96524.81
2023-03-07T18:16:29.292Z,96532.59
2023-03-07T18:19:00.241Z,96540.44
2023-03-07T18:21:29.903Z,96534.34
2023-03-07T18:23:57.365Z,96548.81
2023-03-07T18:26:24.079Z,96546.34
2023-03-07T18:28:53.351Z,96539.34
2023-03-07T18:31:25.607Z,96541.78
2023-03-07T18:33:53.234Z,96542.09
2023-03-07T18:36:21.904Z,96543.25
2023-03-07T18:38:49.250Z,96552.00
2023-03-07T18:41:19.365Z,96535.63
2023-03-07T18:43:46.403Z,96527.84
2023-03-07T18:46:15.742Z,96543.38
2023-03-07T18:48:42.915Z,96528.56
2023-03-07T18:51:12.379Z,96536.25
2023-03-07T18:53:39.783Z,96534.53
2023-03-07T18:56:11.977Z,96551.78
2023-03-07T18:58:39.660Z,96547.44
2023-03-07T19:01:34.043Z,96548.53
2023-03-07T19:04:03.536Z,96544.22
2023-03-07T19:06:39.816Z,96549.34
2023-03-07T19:09:17.908Z,96565.91
2023-03-07T19:11:45.236Z,96554.69
2023-03-07T19:14:12.532Z,96560.75
2023-03-07T19:16:39.406Z,96557.25
2023-03-07T19:19:06.094Z,96565.91
2023-03-07T19:21:32.750Z,96558.91
2023-03-07T19:24:01.733Z,96567.63
2023-03-07T19:26:28.679Z,96565.91
2023-03-07T19:28:56.631Z,96566.81
2023-03-07T19:31:26.988Z,96565.94
2023-03-07T19:33:54.217Z,96573.69
2023-03-07T19:36:27.029Z,96566.69
2023-03-07T19:38:55.625Z,96581.41
2023-03-07T19:41:25.011Z,96577.97
2023-03-07T19:43:52.156Z,96591.84
2023-03-07T19:46:20.503Z,96595.13
2023-03-07T19:48:47.973Z,96602.28
2023-03-07T19:51:17.372Z,96598.72
2023-03-07T19:53:45.374Z,96600.41
2023-03-07T19:56:15.414Z,96603.88
2023-03-07T19:58:42.004Z,96610.84
2023-03-07T20:01:10.515Z,96611.75
2023-03-07T20:03:37.345Z,96621.34
2023-03-07T20:06:05.392Z,96614.50
2023-03-07T20:08:33.686Z,96620.56
2023-03-07T20:11:10.783Z,96627.47
2023-03-07T20:13:37.648Z,96619.75
2023-03-07T20:16:04.672Z,96630.19
2023-03-07T20:18:31.282Z,96627.66
2023-03-07T20:21:02.899Z,96625.94
2023-03-07T20:23:29.620Z,96629.31
2023-03-07T20:26:12.197Z,96632.06
2023-03-07T20:28:39.288Z,96634.56
2023-03-07T20:31:10.641Z,96638.06
2023-03-07T20:33:39.257Z,96648.41
2023-03-07T20:36:09.814Z,96651.97
2023-03-07T20:38:37.613Z,96655.34
2023-03-07T20:41:06.775Z,96663.22
2023-03-07T20:43:34.061Z,96658.88
2023-03-07T20:46:05.858Z,96668.41
2023-03-07T20:48:32.865Z,96663.22
2023-03-07T20:51:18.332Z,96673.56
2023-03-07T20:53:46.317Z,96675.19
2023-03-07T20:56:12.986Z,96671.78
2023-03-07T20:58:39.544Z,96676.09
2023-03-07T21:01:06.310Z,96668.41
2023-03-07T21:03:33.149Z,96673.47
2023-03-07T21:06:01.932Z,96675.31
2023-03-07T21:08:34.082Z,96681.31
2023-03-07T21:11:18.467Z,96683.06
2023-03-07T21:13:47.639Z,96692.50
2023-03-07T21:16:20.409Z,96687.31
2023-03-07T21:18:47.614Z,96695.06
2023-03-07T21:21:19.528Z,96693.53
2023-03-07T21:23:46.645Z,96706.47
2023-03-07T21:26:22.265Z,96700.38
2023-03-07T21:28:50.722Z,96704.69
2023-03-07T21:31:22.678Z,96711.63
2023-03-07T21:33:54.452Z,96706.38
2023-03-07T21:36:22.256Z,96708.16
2023-03-07T21:38:49.164Z,96715.94
2023-03-07T21:41:17.073Z,96709.88
2023-03-07T21:43:43.745Z,96715.91
2023-03-07T21:46:12.667Z,96714.97
2023-03-07T21:48:39.735Z,96718.50
2023-03-07T21:51:06.816Z,96709.88
2023-03-07T21:53:34.339Z,96711.47
2023-03-07T21:56:03.331Z,96703.88
2023-03-07T21:58:31.049Z,96707.41
2023-03-07T22:00:58.151Z,96718.56
2023-03-07T22:03:26.752Z,96719.34
2023-03-07T22:05:54.872Z,96728.84
2023-03-07T22:08:22.938Z,96729.75
2023-03-07T22:11:00.538Z,96729.72
2023-03-07T22:13:28.434Z,96734.03
2023-03-07T22:15:59.409Z,96737.41
2023-03-07T22:18:27.460Z,96736.47
2023-03-07T22:20:55.161Z,96739.19
2023-03-07T22:23:26.632Z,96739.25
2023-03-07T22:25:53.569Z,96741.81
2023-03-07T22:28:20.477Z,96740.00
2023-03-07T22:30:47.581Z,96751.22
2023-03-07T22:33:14.110Z,96745.25
2023-03-07T22:35:41.180Z,96743.56
2023-03-07T22:38:07.825Z,96748.66
2023-03-07T22:40:34.449Z,96756.41
2023-03-07T22:43:01.027Z,96755.56
2023-03-07T22:45:27.576Z,96747.06
2023-03-07T22:47:54.296Z,96751.25
2023-03-07T22:50:21.159Z,96756.53
2023-03-07T22:52:48.297Z,96761.66
2023-03-07T22:55:15.049Z,96770.16
2023-03-07T22:57:41.754Z,96772.78
2023-03-07T23:00:09.229Z,96772.81
2023-03-07T23:02:35.805Z,96765.06
2023-03-07T23:05:02.401Z,96753.91
2023-03-07T23:07:29.098Z,96757.28
2023-03-07T23:09:55.717Z,96759.03
2023-03-07T23:12:22.417Z,96752.88
2023-03-07T23:14:49.057Z,96762.47
2023-03-07T23:17:15.689Z,96780.47
2023-03-07T23:19:42.385Z,96765.94
2023-03-07T23:22:09.030Z,96765.13
2023-03-07T23:24:36.323Z,96765.13
2023-03-07T23:27:03.034Z,96771.94
2023-03-07T23:29:29.613Z,96764.16
2023-03-07T23:31:56.271Z,96759.00
2023-03-07T23:34:22.821Z,96759.03
2023-03-07T23:36:49.528Z,96760.78
2023-03-07T23:39:17.600Z,96767.69
2023-03-07T23:41:44.255Z,96784.03
2023-03-07T23:44:11.653Z,96785.72
2023-03-07T23:46:38.853Z,96788.31
2023-03-07T23:49:05.715Z,96785.59
2023-03-07T23:51:32.373Z,96785.69
2023-03-07T23:53:59.096Z,96777.03
2023-03-07T23:56:25.835Z,96788.97
2023-03-07T23:58:52.589Z,96790.78
